Time;durP1;ratioP1;P1;durP2;ratioP2;P2;SDS_P1;SDS_P2;PMS_P1;PMS_P2;Temp;Humidity;BMP_temperature;BMP_pressure;BME280_temperature;BME280_humidity;BME280_pressure;Samples;Min_cycle;Max_cycle;Signal;HPM_P1;HPM_P2
2023/07/30 00:02:22;;;;;;;2.07;1.80;;;19.50;98.00;;;;;;5015946;28;20998;-72
2023/07/30 00:04:49;;;;;;;2.30;1.80;;;19.50;98.00;;;;;;5016206;28;20463;-71
2023/07/30 00:07:16;;;;;;;1.87;1.67;;;19.40;98.00;;;;;;5015640;28;20451;-71
2023/07/30 00:09:43;;;;;;;3.67;1.80;;;19.40;98.00;;;;;;5015907;28;20585;-72
2023/07/30 00:12:11;;;;;;;2.13;1.50;;;19.20;98.00;;;;;;5015511;28;20524;-72
2023/07/30 00:14:39;;;;;;;4.30;1.30;;;19.10;98.00;;;;;;5015539;28;20458;-71
2023/07/30 00:17:06;;;;;;;1.77;1.53;;;18.90;98.00;;;;;;5015597;28;20455;-72
2023/07/30 00:19:35;;;;;;;1.63;1.50;;;18.80;98.00;;;;;;5014143;28;20459;-74
2023/07/30 00:22:03;;;;;;;1.87;1.60;;;18.70;98.00;;;;;;5015493;28;20598;-71
2023/07/30 00:24:30;;;;;;;1.50;1.37;;;18.50;98.00;;;;;;5015408;28;20460;-71
2023/07/30 00:26:57;;;;;;;1.70;1.30;;;18.40;98.00;;;;;;5015296;28;20468;-73
2023/07/30 00:29:25;;;;;;;1.60;1.40;;;18.40;98.00;;;;;;5015309;28;20462;-72
2023/07/30 00:31:54;;;;;;;1.40;1.27;;;18.40;98.00;;;;;;5015314;28;20459;-73
2023/07/30 00:34:22;;;;;;;1.47;1.27;;;18.30;98.00;;;;;;5015201;28;20455;-72
2023/07/30 00:36:49;;;;;;;1.70;1.30;;;18.40;98.00;;;;;;5015082;28;20459;-72
2023/07/30 00:39:19;;;;;;;2.03;1.43;;;18.40;98.00;;;;;;5015115;28;20455;-71
2023/07/30 00:41:46;;;;;;;1.73;1.30;;;18.60;98.00;;;;;;5015075;28;20483;-72
2023/07/30 00:44:13;;;;;;;1.43;1.30;;;18.60;98.00;;;;;;5015029;28;20481;-71
2023/07/30 00:46:41;;;;;;;1.43;1.30;;;18.60;98.00;;;;;;5014842;28;20517;-71
2023/07/30 00:49:10;;;;;;;2.70;1.40;;;18.40;98.00;;;;;;5014790;28;20452;-72
2023/07/30 00:51:37;;;;;;;2.17;1.40;;;18.30;98.00;;;;;;5014343;28;20462;-72
2023/07/30 00:54:04;;;;;;;6.40;1.40;;;18.30;98.00;;;;;;5014984;28;20931;-71
2023/07/30 00:56:31;;;;;;;2.03;1.40;;;18.30;98.00;;;;;;5015020;28;20451;-72
2023/07/30 00:58:59;;;;;;;1.63;1.33;;;18.30;98.00;;;;;;5014349;28;20459;-72
2023/07/30 01:01:26;;;;;;;1.50;1.40;;;18.30;98.00;;;;;;5013920;28;21001;-71
2023/07/30 01:03:53;;;;;;;1.60;1.37;;;18.40;98.00;;;;;;5013943;28;20468;-71
2023/07/30 01:06:23;;;;;;;1.57;1.30;;;18.50;98.00;;;;;;5014042;28;20456;-72
2023/07/30 01:08:50;;;;;;;1.40;1.33;;;18.40;98.00;;;;;;5013956;28;20452;-72
2023/07/30 01:11:18;;;;;;;3.10;1.20;;;18.30;98.00;;;;;;5012735;28;20494;-73
2023/07/30 01:13:46;;;;;;;4.53;1.23;;;18.30;98.00;;;;;;5013942;28;20507;-72
2023/07/30 01:16:13;;;;;;;1.50;1.30;;;18.30;98.00;;;;;;5014530;28;20483;-73
2023/07/30 01:18:41;;;;;;;2.00;1.50;;;18.20;98.00;;;;;;5014381;28;20815;-73
2023/07/30 01:21:09;;;;;;;5.47;1.40;;;18.10;98.00;;;;;;5014253;28;20483;-72
2023/07/30 01:23:36;;;;;;;2.43;1.90;;;18.30;98.00;;;;;;5014189;28;20452;-72
2023/07/30 01:26:09;;;;;;;1.60;1.40;;;18.30;98.00;;;;;;5014128;28;20455;-71
2023/07/30 01:28:44;;;;;;;2.80;1.70;;;18.10;98.00;;;;;;5014178;28;20452;-71
2023/07/30 01:31:15;;;;;;;1.87;1.43;;;18.10;98.00;;;;;;5014417;28;20529;-72
2023/07/30 01:33:43;;;;;;;2.07;1.37;;;18.00;98.00;;;;;;5014037;28;20467;-72
2023/07/30 01:36:16;;;;;;;3.40;1.40;;;17.90;98.00;;;;;;5014093;28;20455;-71
2023/07/30 01:38:44;;;;;;;1.50;1.40;;;17.90;98.00;;;;;;5013913;28;20542;-72
2023/07/30 01:41:11;;;;;;;1.40;1.30;;;17.90;98.00;;;;;;5014177;28;20475;-71
2023/07/30 01:43:38;;;;;;;1.87;1.47;;;17.90;98.00;;;;;;5013794;28;20452;-72
2023/07/30 01:46:05;;;;;;;2.90;1.40;;;17.90;98.00;;;;;;5014125;28;20464;-71
2023/07/30 01:48:32;;;;;;;1.80;1.60;;;18.00;98.00;;;;;;5013866;28;20462;-72
2023/07/30 01:51:00;;;;;;;3.10;1.67;;;17.90;98.00;;;;;;5013537;28;20470;-71
2023/07/30 01:53:28;;;;;;;2.07;1.60;;;17.80;98.00;;;;;;5013980;28;20800;-71
2023/07/30 01:55:55;;;;;;;1.57;1.47;;;17.90;98.00;;;;;;5013945;28;20458;-72
2023/07/30 01:58:23;;;;;;;2.07;1.33;;;18.00;98.00;;;;;;5014158;28;20446;-72
2023/07/30 02:00:50;;;;;;;5.43;1.57;;;18.10;98.00;;;;;;5013633;28;20938;-71
2023/07/30 02:03:17;;;;;;;1.63;1.63;;;18.10;98.00;;;;;;5013444;28;20500;-70
2023/07/30 02:05:44;;;;;;;4.53;1.50;;;18.20;98.00;;;;;;5013385;28;20467;-72
2023/07/30 02:08:15;;;;;;;2.73;1.70;;;18.20;98.00;;;;;;5013466;28;20958;-73
2023/07/30 02:10:44;;;;;;;1.70;1.40;;;18.40;98.00;;;;;;5012840;28;20521;-71
2023/07/30 02:13:11;;;;;;;1.87;1.67;;;18.20;98.00;;;;;;5013235;28;20788;-72
2023/07/30 02:15:42;;;;;;;1.83;1.60;;;18.20;98.00;;;;;;5013237;28;20452;-72
2023/07/30 02:18:10;;;;;;;1.97;1.50;;;18.10;98.00;;;;;;5012970;28;20551;-72
2023/07/30 02:20:37;;;;;;;2.30;1.63;;;18.10;98.00;;;;;;5013240;28;20460;-71
2023/07/30 02:23:05;;;;;;;2.47;1.80;;;18.00;98.00;;;;;;5013250;28;20487;-72
2023/07/30 02:25:32;;;;;;;2.07;1.73;;;18.10;98.00;;;;;;5013259;28;20463;-71
2023/07/30 02:28:01;;;;;;;2.57;1.90;;;18.10;98.00;;;;;;5013104;28;20451;-71
2023/07/30 02:30:29;;;;;;;1.80;1.60;;;18.20;98.00;;;;;;5013092;28;20471;-71
2023/07/30 02:32:56;;;;;;;2.57;1.80;;;18.10;98.00;;;;;;5012967;28;20466;-72
2023/07/30 02:35:23;;;;;;;2.00;1.60;;;18.00;98.00;;;;;;5012883;28;20451;-71
2023/07/30 02:37:51;;;;;;;1.90;1.70;;;18.10;98.00;;;;;;5012989;28;20456;-72
2023/07/30 02:40:18;;;;;;;1.80;1.70;;;18.10;98.00;;;;;;5013091;28;20451;-72
2023/07/30 02:42:45;;;;;;;2.10;1.60;;;18.10;98.00;;;;;;5012824;28;20487;-72
2023/07/30 02:45:15;;;;;;;1.87;1.60;;;18.20;98.00;;;;;;5013044;28;20482;-73
2023/07/30 02:47:42;;;;;;;1.93;1.63;;;18.30;98.00;;;;;;5012742;28;20459;-73
2023/07/30 02:50:10;;;;;;;2.03;1.60;;;18.40;98.00;;;;;;5012958;28;20452;-71
2023/07/30 02:52:37;;;;;;;1.97;1.83;;;18.40;98.00;;;;;;5013041;28;20467;-71
2023/07/30 02:55:06;;;;;;;2.70;1.83;;;18.30;98.00;;;;;;5012814;28;20478;-72
2023/07/30 02:57:33;;;;;;;1.93;1.60;;;18.20;98.00;;;;;;5011469;28;20953;-72
2023/07/30 03:00:00;;;;;;;1.70;1.43;;;18.30;98.00;;;;;;5012524;28;20461;-72
2023/07/30 03:02:29;;;;;;;2.20;1.60;;;18.20;98.00;;;;;;5012365;28;21024;-72
2023/07/30 03:04:56;;;;;;;1.87;1.60;;;18.20;98.00;;;;;;5012527;28;20672;-71
2023/07/30 03:07:23;;;;;;;4.43;1.90;;;18.20;98.00;;;;;;5012232;28;20862;-73
2023/07/30 03:09:50;;;;;;;2.80;1.80;;;18.20;98.00;;;;;;5012251;28;20468;-71
2023/07/30 03:12:18;;;;;;;2.00;1.70;;;18.40;98.00;;;;;;5012439;28;20452;-71
2023/07/30 03:14:45;;;;;;;1.67;1.47;;;18.40;98.00;;;;;;5012370;28;20490;-72
2023/07/30 03:17:12;;;;;;;2.40;1.83;;;18.30;98.00;;;;;;5012459;28;20459;-72
2023/07/30 03:19:40;;;;;;;1.87;1.77;;;18.30;98.00;;;;;;5012362;28;21019;-73
2023/07/30 03:22:07;;;;;;;1.90;1.60;;;18.30;98.00;;;;;;5012340;28;20499;-71
2023/07/30 03:24:34;;;;;;;1.93;1.60;;;18.40;98.00;;;;;;5012403;28;20591;-72
2023/07/30 03:27:02;;;;;;;2.17;1.80;;;18.40;98.00;;;;;;5012162;28;20459;-72
2023/07/30 03:29:29;;;;;;;2.13;1.63;;;18.30;98.00;;;;;;5012387;28;20914;-72
2023/07/30 03:31:56;;;;;;;2.00;1.80;;;18.30;98.00;;;;;;5012453;28;20456;-71
2023/07/30 03:34:27;;;;;;;1.80;1.70;;;18.10;98.00;;;;;;5012252;28;20510;-71
2023/07/30 03:36:56;;;;;;;2.07;1.77;;;18.00;98.00;;;;;;5011229;28;20460;-71
2023/07/30 03:39:23;;;;;;;1.70;1.67;;;18.00;98.00;;;;;;5012135;28;20458;-71
2023/07/30 03:41:50;;;;;;;2.03;1.70;;;18.00;98.00;;;;;;5012400;28;20541;-72
2023/07/30 03:44:17;;;;;;;3.03;1.97;;;18.00;98.00;;;;;;5012291;28;20965;-71
2023/07/30 03:46:45;;;;;;;2.93;1.93;;;18.00;98.00;;;;;;5012272;28;20824;-72
2023/07/30 03:49:12;;;;;;;2.80;1.97;;;18.10;98.00;;;;;;5012026;28;20448;-72
2023/07/30 03:51:43;;;;;;;5.33;2.00;;;18.20;98.00;;;;;;5012216;28;20539;-71
2023/07/30 03:54:11;;;;;;;8.70;1.80;;;18.20;98.00;;;;;;5011893;28;20469;-72
2023/07/30 03:56:38;;;;;;;2.43;1.90;;;18.40;98.00;;;;;;5011866;28;20459;-72
2023/07/30 03:59:05;;;;;;;3.13;1.80;;;18.40;98.00;;;;;;5011714;28;20459;-71
2023/07/30 04:01:33;;;;;;;2.00;1.73;;;18.30;98.00;;;;;;5011875;28;20459;-72
2023/07/30 04:04:00;;;;;;;2.20;1.80;;;18.30;98.00;;;;;;5011542;28;20550;-71
2023/07/30 04:06:27;;;;;;;3.03;2.10;;;18.30;98.00;;;;;;5011809;28;20470;-72
2023/07/30 04:08:55;;;;;;;1.80;1.60;;;18.20;98.00;;;;;;5030393;28;20454;-72
2023/07/30 04:11:24;;;;;;;1.70;1.50;;;18.30;98.00;;;;;;5031601;28;20881;-72
2023/07/30 04:13:51;;;;;;;5.87;2.30;;;18.30;98.00;;;;;;5031286;28;20465;-72
2023/07/30 04:16:18;;;;;;;2.37;1.63;;;18.30;98.00;;;;;;5031541;28;20455;-72
2023/07/30 04:18:45;;;;;;;3.83;2.10;;;18.20;98.00;;;;;;5031331;28;20866;-72
2023/07/30 04:21:13;;;;;;;6.97;2.50;;;18.30;98.00;;;;;;5031532;28;20956;-72
2023/07/30 04:23:40;;;;;;;2.00;1.80;;;18.20;98.00;;;;;;5031399;28;20569;-71
2023/07/30 04:26:08;;;;;;;2.80;1.90;;;18.30;98.00;;;;;;5031464;28;20462;-72
2023/07/30 04:28:37;;;;;;;2.53;1.90;;;18.30;98.00;;;;;;5030042;28;20861;-74
2023/07/30 04:31:04;;;;;;;2.37;1.90;;;18.40;98.00;;;;;;5031462;28;20933;-73
2023/07/30 04:33:31;;;;;;;2.10;1.80;;;18.40;98.00;;;;;;5034162;28;20455;-71
2023/07/30 04:35:58;;;;;;;2.60;1.90;;;18.60;98.00;;;;;;5035370;28;20931;-71
2023/07/30 04:38:25;;;;;;;2.50;2.00;;;18.80;98.00;;;;;;5034048;28;20457;-72
2023/07/30 04:40:52;;;;;;;3.90;1.77;;;18.70;98.00;;;;;;5034640;28;20533;-73
2023/07/30 04:43:19;;;;;;;2.33;1.80;;;18.70;98.00;;;;;;5035086;28;20494;-71
2023/07/30 04:45:48;;;;;;;1.87;1.77;;;18.80;98.00;;;;;;5034847;28;20466;-72
2023/07/30 04:48:15;;;;;;;5.83;2.30;;;18.80;98.00;;;;;;5034491;28;20979;-73
2023/07/30 04:50:42;;;;;;;3.03;2.10;;;19.00;98.00;;;;;;5034621;28;20467;-72
2023/07/30 04:53:09;;;;;;;3.70;2.20;;;19.10;98.00;;;;;;5034617;28;21102;-72
2023/07/30 04:55:37;;;;;;;6.83;2.03;;;19.00;98.00;;;;;;5034638;28;20454;-72
2023/07/30 04:58:04;;;;;;;2.73;1.90;;;18.90;98.00;;;;;;5034556;28;20981;-71
2023/07/30 05:00:31;;;;;;;4.60;2.10;;;19.00;98.00;;;;;;5034367;28;20457;-72
2023/07/30 05:02:59;;;;;;;2.23;1.90;;;19.00;98.00;;;;;;5032990;28;21049;-73
2023/07/30 05:05:29;;;;;;;2.60;2.00;;;19.10;98.00;;;;;;5034506;28;20820;-71
2023/07/30 05:07:56;;;;;;;2.27;1.90;;;19.00;98.00;;;;;;5034420;28;20466;-72
2023/07/30 05:10:23;;;;;;;2.30;2.00;;;19.00;98.00;;;;;;5034282;28;20462;-72
2023/07/30 05:12:50;;;;;;;3.07;2.20;;;19.10;98.00;;;;;;5033976;28;20455;-72
2023/07/30 05:15:17;;;;;;;3.07;2.17;;;19.00;98.00;;;;;;5034128;28;20474;-71
2023/07/30 05:17:44;;;;;;;4.00;2.03;;;18.90;98.00;;;;;;5034245;28;20815;-72
2023/07/30 05:20:13;;;;;;;4.00;2.03;;;18.90;98.00;;;;;;5034248;28;20454;-71
2023/07/30 05:22:40;;;;;;;3.63;2.33;;;18.90;98.00;;;;;;5034263;28;20483;-72
2023/07/30 05:25:07;;;;;;;2.10;1.80;;;19.00;98.00;;;;;;5033721;28;20457;-72
2023/07/30 05:27:43;;;;;;;3.27;2.17;;;19.10;98.00;;;;;;5034182;28;20821;-72
2023/07/30 05:30:11;;;;;;;2.30;1.90;;;19.00;98.00;;;;;;5034188;28;20804;-71
2023/07/30 05:32:38;;;;;;;2.17;1.93;;;18.90;98.00;;;;;;5034210;28;20463;-72
2023/07/30 05:35:06;;;;;;;2.77;2.30;;;18.90;98.00;;;;;;5034323;28;20485;-72
2023/07/30 05:37:34;;;;;;;4.03;2.50;;;18.90;98.00;;;;;;5033986;28;20458;-72
2023/07/30 05:40:02;;;;;;;3.63;2.40;;;18.90;98.00;;;;;;5033916;28;20456;-73
2023/07/30 05:42:29;;;;;;;3.50;2.57;;;19.00;98.00;;;;;;5033772;28;20502;-72
2023/07/30 05:44:56;;;;;;;4.90;2.13;;;18.90;98.00;;;;;;5032601;28;20466;-72
2023/07/30 05:47:23;;;;;;;4.10;2.53;;;18.80;98.00;;;;;;5033520;28;20534;-73
2023/07/30 05:49:50;;;;;;;2.33;2.00;;;18.70;98.00;;;;;;5033642;28;20465;-72
2023/07/30 05:52:18;;;;;;;2.73;2.10;;;18.70;98.00;;;;;;5033626;28;20482;-72
2023/07/30 05:54:46;;;;;;;3.40;2.37;;;18.80;98.00;;;;;;5033610;28;20882;-72
2023/07/30 05:57:13;;;;;;;2.53;2.20;;;18.80;98.00;;;;;;5033549;28;20456;-72
2023/07/30 05:59:40;;;;;;;3.20;2.07;;;18.80;98.00;;;;;;5033346;28;20447;-72
2023/07/30 06:02:10;;;;;;;5.93;2.40;;;19.00;98.00;;;;;;5033382;28;20860;-73
2023/07/30 06:04:37;;;;;;;3.33;2.30;;;19.10;98.00;;;;;;5033297;28;20516;-72
2023/07/30 06:07:37;;;;;;;4.80;2.40;;;19.20;98.00;;;;;;5033442;28;20462;-72
2023/07/30 06:10:07;;;;;;;3.20;2.10;;;19.30;98.00;;;;;;5033068;28;20458;-72
2023/07/30 06:12:35;;;;;;;2.90;2.10;;;19.30;98.00;;;;;;5033349;28;21018;-72
2023/07/30 06:15:02;;;;;;;2.27;1.90;;;19.30;98.00;;;;;;5033082;28;20461;-72
2023/07/30 06:17:29;;;;;;;3.33;2.27;;;19.20;98.00;;;;;;5033187;28;20462;-71
2023/07/30 06:19:56;;;;;;;2.53;2.17;;;19.30;98.00;;;;;;5033080;28;20513;-72
2023/07/30 06:22:23;;;;;;;3.87;2.43;;;19.30;98.00;;;;;;5033070;28;20447;-72
2023/07/30 06:24:52;;;;;;;5.73;3.50;;;19.30;98.00;;;;;;5033101;28;20957;-73
2023/07/30 06:27:20;;;;;;;8.23;4.40;;;19.30;98.00;;;;;;5033113;28;20859;-71
2023/07/30 06:29:48;;;;;;;4.20;2.90;;;19.40;98.00;;;;;;5033004;28;20467;-72
2023/07/30 06:32:15;;;;;;;4.83;2.57;;;19.60;98.00;;;;;;5032699;28;20536;-72
2023/07/30 06:34:42;;;;;;;2.90;2.20;;;19.70;98.00;;;;;;5032467;28;20469;-72
2023/07/30 06:37:09;;;;;;;3.03;2.27;;;19.80;98.00;;;;;;5032853;28;20455;-72
2023/07/30 06:39:36;;;;;;;3.80;2.60;;;20.00;98.00;;;;;;5032533;28;20451;-72
2023/07/30 06:42:03;;;;;;;3.60;2.60;;;20.10;98.00;;;;;;5032756;28;20512;-72
2023/07/30 06:44:31;;;;;;;3.00;2.27;;;20.40;98.00;;;;;;5032543;28;20485;-71
2023/07/30 06:46:58;;;;;;;6.43;3.10;;;20.50;98.00;;;;;;5032053;28;20791;-72
2023/07/30 06:49:26;;;;;;;4.30;3.00;;;20.60;98.00;;;;;;5032347;28;20459;-65
2023/07/30 06:51:53;;;;;;;4.07;2.67;;;20.80;98.00;;;;;;5032461;28;20533;-65
2023/07/30 06:54:21;;;;;;;4.17;2.97;;;20.70;98.00;;;;;;5032554;28;20881;-65
2023/07/30 06:56:48;;;;;;;4.00;2.63;;;20.80;98.00;;;;;;5023417;28;20460;-65
2023/07/30 06:59:22;;;;;;;7.90;3.03;;;20.80;98.00;;;;;;5012721;28;20456;-64
2023/07/30 07:04:20;;;;;;;3.67;2.60;;;20.70;98.00;;;;;;5030198;28;20506;-65
2023/07/30 07:09:15;;;;;;;4.60;2.73;;;20.80;98.00;;;;;;5030115;28;20478;-65
2023/07/30 07:11:42;;;;;;;3.80;2.67;;;20.90;98.00;;;;;;5030439;28;20458;-65
2023/07/30 07:14:09;;;;;;;6.27;2.97;;;20.90;98.00;;;;;;5031417;28;20458;-65
2023/07/30 07:16:36;;;;;;;7.03;3.03;;;20.90;98.00;;;;;;5031322;28;20521;-65
2023/07/30 07:19:05;;;;;;;4.30;2.70;;;21.00;98.00;;;;;;5031470;28;20454;-65
2023/07/30 07:21:34;;;;;;;3.07;2.43;;;20.90;98.00;;;;;;5031416;28;20494;-65
2023/07/30 07:24:01;;;;;;;3.60;2.70;;;20.90;98.00;;;;;;5031485;28;20559;-65
2023/07/30 07:26:28;;;;;;;5.67;2.23;;;20.90;98.00;;;;;;5031500;28;21113;-65
2023/07/30 07:28:57;;;;;;;3.47;2.40;;;21.00;98.00;;;;;;5030053;28;20462;-65
2023/07/30 07:31:24;;;;;;;5.30;2.80;;;20.90;98.00;;;;;;5031215;28;20960;-64
2023/07/30 07:33:52;;;;;;;4.83;2.73;;;20.90;98.00;;;;;;5030082;28;20568;-65
2023/07/30 07:36:19;;;;;;;5.30;2.53;;;20.90;98.00;;;;;;5031248;28;20953;-65
2023/07/30 07:38:48;;;;;;;5.40;3.27;;;20.80;98.00;;;;;;5029872;28;20451;-65
2023/07/30 07:41:16;;;;;;;7.13;2.53;;;20.80;98.00;;;;;;5012174;28;20460;-65
2023/07/30 07:43:44;;;;;;;4.00;2.50;;;20.70;98.00;;;;;;5011306;28;20578;-65
2023/07/30 07:46:14;;;;;;;5.07;2.77;;;20.60;98.00;;;;;;5026220;28;20955;-65
2023/07/30 07:48:41;;;;;;;4.50;2.50;;;20.70;98.00;;;;;;5031042;28;20513;-65
2023/07/30 07:51:09;;;;;;;3.50;2.43;;;20.60;98.00;;;;;;5030935;28;20462;-65
2023/07/30 07:53:36;;;;;;;3.03;2.23;;;20.50;98.00;;;;;;5029742;28;20459;-65
2023/07/30 07:56:05;;;;;;;3.33;2.30;;;20.50;98.00;;;;;;5030942;28;20470;-65
2023/07/30 07:58:32;;;;;;;2.43;2.10;;;20.60;98.00;;;;;;5030859;28;20853;-64
2023/07/30 08:01:01;;;;;;;5.63;2.50;;;20.60;98.00;;;;;;5030996;28;20485;-65
2023/07/30 08:03:28;;;;;;;4.20;2.33;;;20.80;98.00;;;;;;5030719;28;20865;-66
2023/07/30 08:05:55;;;;;;;2.67;2.00;;;20.70;98.00;;;;;;5029497;28;20467;-65
2023/07/30 08:08:22;;;;;;;3.23;2.47;;;20.60;98.00;;;;;;5033320;28;20644;-65
2023/07/30 08:10:50;;;;;;;4.80;2.10;;;20.60;98.00;;;;;;5034567;28;20466;-65
2023/07/30 08:13:18;;;;;;;3.50;2.17;;;20.60;98.00;;;;;;5034672;28;20464;-65
2023/07/30 08:15:45;;;;;;;2.57;2.00;;;20.40;98.00;;;;;;5034764;28;20466;-65
2023/07/30 08:18:15;;;;;;;2.20;1.90;;;20.30;98.00;;;;;;5033503;28;20809;-65
2023/07/30 08:20:42;;;;;;;1.90;1.73;;;20.30;98.00;;;;;;5034558;28;20451;-65
2023/07/30 08:23:10;;;;;;;2.40;1.90;;;20.20;98.00;;;;;;5034539;28;20691;-64
2023/07/30 08:25:37;;;;;;;2.77;1.80;;;20.20;98.00;;;;;;5016980;28;20960;-64
2023/07/30 08:28:04;;;;;;;2.63;1.90;;;20.20;98.00;;;;;;5034732;28;20873;-64
2023/07/30 08:30:33;;;;;;;2.30;1.87;;;20.20;98.00;;;;;;5029367;28;20471;-64
2023/07/30 08:33:00;;;;;;;2.50;1.73;;;20.20;98.00;;;;;;5014377;28;20953;-64
2023/07/30 08:35:27;;;;;;;2.30;1.73;;;20.10;98.00;;;;;;5014400;28;20513;-64
2023/07/30 08:37:55;;;;;;;1.90;1.80;;;20.20;98.00;;;;;;5020961;28;20455;-65
2023/07/30 08:40:24;;;;;;;2.20;1.90;;;20.30;98.00;;;;;;5033931;28;20972;-65
2023/07/30 08:42:52;;;;;;;1.93;1.63;;;20.40;98.00;;;;;;5033997;28;20454;-65
2023/07/30 08:45:19;;;;;;;2.27;1.90;;;20.50;98.00;;;;;;5033966;28;20489;-65
2023/07/30 08:47:48;;;;;;;3.07;2.07;;;20.60;98.00;;;;;;5033853;28;20458;-65
2023/07/30 08:50:15;;;;;;;5.43;2.50;;;20.80;98.00;;;;;;5033068;28;20458;-65
2023/07/30 08:52:44;;;;;;;2.40;1.80;;;20.60;98.00;;;;;;5033971;28;20469;-65
2023/07/30 08:55:12;;;;;;;2.23;1.80;;;20.70;98.00;;;;;;5033804;28;20473;-65
2023/07/30 08:57:42;;;;;;;2.43;1.90;;;21.00;98.00;;;;;;5033419;28;20890;-64
2023/07/30 09:00:10;;;;;;;2.70;1.90;;;21.10;98.00;;;;;;5033758;28;20455;-65
2023/07/30 09:02:42;;;;;;;3.17;2.10;;;21.00;98.00;;;;;;5033456;28;20454;-65
2023/07/30 09:05:11;;;;;;;2.17;1.90;;;21.00;98.00;;;;;;5033767;28;20485;-65
2023/07/30 09:07:38;;;;;;;4.20;2.20;;;21.20;98.00;;;;;;5033453;28;20561;-64
2023/07/30 09:10:06;;;;;;;2.87;1.97;;;21.40;98.00;;;;;;5033397;28;20490;-65
2023/07/30 09:12:35;;;;;;;2.90;2.00;;;21.50;98.00;;;;;;5033547;28;20516;-65
2023/07/30 09:15:04;;;;;;;6.73;1.90;;;21.60;98.00;;;;;;5033501;28;20513;-65
2023/07/30 09:17:31;;;;;;;1.90;1.60;;;21.70;98.00;;;;;;5033443;28;20465;-65
2023/07/30 09:20:00;;;;;;;1.73;1.70;;;21.80;98.00;;;;;;5033481;28;20455;-65
2023/07/30 09:22:29;;;;;;;5.83;1.60;;;21.90;98.00;;;;;;5033727;28;20454;-64
2023/07/30 09:24:58;;;;;;;2.00;1.87;;;22.00;98.00;;;;;;5033285;28;20487;-65
2023/07/30 09:27:27;;;;;;;1.73;1.60;;;22.00;98.00;;;;;;5033238;28;20852;-65
2023/07/30 09:29:56;;;;;;;2.17;2.00;;;21.90;98.00;;;;;;5033183;28;20573;-65
2023/07/30 09:32:27;;;;;;;4.23;2.40;;;21.80;98.00;;;;;;5023714;28;20463;-65
2023/07/30 09:34:54;;;;;;;3.23;2.23;;;21.70;98.00;;;;;;5013335;28;20459;-65
2023/07/30 09:37:21;;;;;;;3.07;2.10;;;21.70;98.00;;;;;;5013435;28;20818;-65
2023/07/30 09:39:50;;;;;;;2.43;1.90;;;21.60;98.00;;;;;;5013113;28;20458;-65
2023/07/30 09:42:19;;;;;;;6.53;2.30;;;21.50;98.00;;;;;;5013416;28;20455;-64
2023/07/30 09:44:49;;;;;;;2.87;2.13;;;21.60;98.00;;;;;;5013063;28;20534;-65
2023/07/30 09:47:16;;;;;;;2.83;1.93;;;21.40;98.00;;;;;;5012086;28;20563;-65
2023/07/30 09:49:43;;;;;;;2.87;1.93;;;21.40;98.00;;;;;;5013024;28;20463;-64
2023/07/30 09:52:11;;;;;;;3.27;2.17;;;21.30;98.00;;;;;;5013093;28;20550;-65
2023/07/30 09:54:39;;;;;;;2.50;2.20;;;21.10;98.00;;;;;;5013145;28;20930;-65
2023/07/30 09:57:08;;;;;;;2.97;2.03;;;21.10;98.00;;;;;;5030545;28;20914;-64
2023/07/30 09:59:35;;;;;;;2.40;2.17;;;21.00;98.00;;;;;;5032601;28;20451;-65
2023/07/30 10:02:02;;;;;;;4.30;2.13;;;21.10;98.00;;;;;;5026912;28;20993;-64
2023/07/30 10:04:32;;;;;;;4.50;2.50;;;20.90;98.00;;;;;;5012544;28;20553;-65
2023/07/30 10:07:02;;;;;;;3.37;2.40;;;20.80;98.00;;;;;;5012658;28;20465;-65
2023/07/30 10:09:34;;;;;;;2.60;2.10;;;20.90;98.00;;;;;;5012741;28;20462;-65
2023/07/30 10:12:04;;;;;;;4.07;2.53;;;20.90;98.00;;;;;;5012889;28;20474;-65
2023/07/30 10:14:34;;;;;;;3.30;2.30;;;20.90;98.00;;;;;;5012676;28;20546;-65
2023/07/30 10:17:01;;;;;;;2.93;2.10;;;21.00;98.00;;;;;;5013218;28;20972;-65
2023/07/30 10:19:31;;;;;;;2.33;2.10;;;21.00;98.00;;;;;;5012604;28;21096;-64
2023/07/30 10:22:22;;;;;;;2.90;2.13;;;21.20;98.00;;;;;;4993453;28;20563;-68
2023/07/30 10:24:58;;;;;;;3.23;2.00;;;21.50;98.00;;;;;;4992715;28;20519;-68
2023/07/30 10:27:26;;;;;;;2.87;2.20;;;21.70;98.00;;;;;;4992910;28;20488;-67
2023/07/30 10:33:03;;;;;;;4.50;2.20;;;21.90;98.00;;;;;;5150191;27;21067;-67
2023/07/30 10:35:39;;;;;;;3.90;2.60;;;22.10;98.00;;;;;;5128090;28;20461;-65
2023/07/30 10:38:17;;;;;;;6.47;2.43;;;22.10;98.00;;;;;;5129544;28;20449;-65
2023/07/30 10:41:01;;;;;;;3.93;2.27;;;21.90;98.00;;;;;;5129201;28;20460;-65
2023/07/30 10:43:30;;;;;;;5.07;2.40;;;22.00;98.00;;;;;;5129239;28;20832;-65
2023/07/30 10:45:57;;;;;;;2.90;2.27;;;22.00;98.00;;;;;;5129235;28;20547;-64
2023/07/30 10:48:34;;;;;;;3.33;2.10;;;22.20;98.00;;;;;;5129162;28;20458;-65
2023/07/30 10:51:02;;;;;;;3.00;2.17;;;22.40;98.00;;;;;;5127617;28;20515;-64
2023/07/30 10:53:30;;;;;;;2.87;2.30;;;22.50;98.00;;;;;;5129026;27;20515;-65
2023/07/30 10:56:01;;;;;;;2.93;2.33;;;22.50;98.00;;;;;;5129261;27;20489;-64
2023/07/30 10:58:28;;;;;;;3.97;2.60;;;22.80;98.00;;;;;;5128813;27;20959;-65
2023/07/30 11:00:55;;;;;;;3.93;2.50;;;22.90;98.00;;;;;;5129071;27;20486;-64
2023/07/30 11:03:26;;;;;;;3.53;2.20;;;23.00;98.00;;;;;;5128830;27;20450;-64
2023/07/30 11:05:55;;;;;;;3.60;2.30;;;22.90;98.00;;;;;;5128861;27;20550;-64
2023/07/30 11:08:33;;;;;;;4.10;2.53;;;22.90;98.00;;;;;;5129016;27;20510;-65
2023/07/30 11:11:00;;;;;;;3.00;2.43;;;23.00;98.00;;;;;;5128858;27;20569;-65
2023/07/30 11:13:27;;;;;;;2.93;2.40;;;23.30;98.00;;;;;;5129128;27;20481;-66
2023/07/30 11:15:55;;;;;;;5.90;2.77;;;23.60;98.00;;;;;;5128692;27;20458;-65
2023/07/30 11:18:22;;;;;;;3.43;2.50;;;24.00;98.00;;;;;;5127365;28;20468;-65
2023/07/30 11:20:51;;;;;;;10.83;2.40;;;24.40;98.00;;;;;;5128484;27;20472;-65
2023/07/30 11:23:21;;;;;;;3.50;2.43;;;24.00;98.00;;;;;;5128588;27;20454;-65
2023/07/30 11:25:50;;;;;;;3.83;2.37;;;24.00;98.00;;;;;;5128490;27;20453;-65
2023/07/30 11:28:29;;;;;;;3.80;2.70;;;24.20;98.00;;;;;;5128435;27;20842;-64
2023/07/30 11:30:59;;;;;;;3.70;2.50;;;24.00;98.00;;;;;;5128130;27;20564;-64
2023/07/30 11:33:26;;;;;;;4.00;2.50;;;23.80;98.00;;;;;;5128402;27;20537;-64
2023/07/30 11:35:54;;;;;;;3.50;2.37;;;23.60;98.00;;;;;;5128382;27;20446;-65
2023/07/30 11:38:24;;;;;;;3.33;2.40;;;23.30;98.00;;;;;;5128254;27;20450;-65
2023/07/30 11:40:52;;;;;;;3.50;2.30;;;22.90;98.00;;;;;;5128316;27;20446;-64
2023/07/30 11:43:19;;;;;;;3.50;2.40;;;22.60;98.00;;;;;;5119244;27;20463;-64
2023/07/30 11:45:46;;;;;;;3.67;2.40;;;22.50;98.00;;;;;;5114666;28;20505;-65
2023/07/30 11:48:14;;;;;;;3.40;2.37;;;22.60;98.00;;;;;;5114537;28;20443;-64
2023/07/30 11:50:48;;;;;;;4.00;2.50;;;22.50;98.00;;;;;;5114206;28;20850;-64
2023/07/30 11:53:16;;;;;;;3.50;2.50;;;22.40;98.00;;;;;;5114431;28;20457;-64
2023/07/30 11:55:45;;;;;;;4.73;3.37;;;22.20;98.00;;;;;;5114122;28;20462;-65
2023/07/30 11:58:13;;;;;;;3.40;2.27;;;22.30;98.00;;;;;;5114193;28;20462;-65
2023/07/30 12:00:44;;;;;;;3.50;2.50;;;22.20;98.00;;;;;;5114788;28;20454;-65
2023/07/30 12:03:13;;;;;;;3.20;2.50;;;22.00;98.00;;;;;;5115367;28;20451;-64
2023/07/30 12:05:40;;;;;;;3.13;2.50;;;22.10;98.00;;;;;;5115214;28;20478;-65
2023/07/30 12:08:17;;;;;;;6.50;2.60;;;22.50;98.00;;;;;;5114444;28;20459;-65
2023/07/30 12:10:47;;;;;;;3.47;2.50;;;23.10;98.00;;;;;;5114646;28;20468;-64
2023/07/30 12:13:16;;;;;;;3.67;2.60;;;23.70;98.00;;;;;;5114066;28;20562;-64
2023/07/30 12:15:52;;;;;;;4.13;2.47;;;24.10;98.00;;;;;;5114289;28;20455;-65
2023/07/30 12:18:19;;;;;;;3.80;2.47;;;24.50;98.00;;;;;;5114260;27;20490;-65
2023/07/30 12:20:46;;;;;;;2.83;2.23;;;25.00;98.00;;;;;;5113744;28;20462;-64
2023/07/30 12:23:13;;;;;;;3.30;2.20;;;24.80;98.00;;;;;;5113943;28;20458;-64
2023/07/30 12:25:40;;;;;;;3.40;2.30;;;24.50;98.00;;;;;;5113747;28;20860;-65
2023/07/30 12:28:10;;;;;;;2.60;2.20;;;24.50;98.00;;;;;;5114046;28;20454;-65
2023/07/30 12:30:38;;;;;;;5.10;2.40;;;24.50;98.00;;;;;;5113444;28;20454;-64
2023/07/30 12:33:06;;;;;;;3.20;2.40;;;24.30;98.00;;;;;;5113655;28;20536;-64
2023/07/30 12:35:34;;;;;;;2.80;2.20;;;23.80;98.00;;;;;;5112497;27;20459;-65
2023/07/30 12:38:02;;;;;;;2.70;2.10;;;23.50;98.00;;;;;;5113480;28;20462;-65
2023/07/30 12:40:33;;;;;;;3.30;2.37;;;23.30;98.00;;;;;;5113515;28;20455;-64
2023/07/30 12:43:01;;;;;;;4.30;2.40;;;23.20;98.00;;;;;;5113606;28;20466;-65
2023/07/30 12:45:29;;;;;;;3.90;2.50;;;23.00;98.00;;;;;;5113270;28;21372;-64
2023/07/30 12:47:57;;;;;;;3.73;2.30;;;22.90;98.00;;;;;;5113478;28;20941;-65
2023/07/30 12:50:24;;;;;;;2.63;2.13;;;23.00;98.00;;;;;;5112064;28;20504;-66
2023/07/30 12:52:51;;;;;;;2.90;2.20;;;23.40;98.00;;;;;;5113471;28;20483;-65
2023/07/30 12:55:19;;;;;;;3.80;2.17;;;24.00;98.00;;;;;;5112298;28;20454;-65
2023/07/30 12:57:46;;;;;;;2.80;2.30;;;24.00;98.00;;;;;;5112922;28;20507;-66
2023/07/30 13:00:14;;;;;;;4.17;2.60;;;23.80;98.00;;;;;;5113381;28;20818;-65
2023/07/30 13:02:43;;;;;;;6.10;2.63;;;23.60;98.00;;;;;;5111729;28;20840;-66